Terminal Aerodrome Forecast
Issued by NWS

Home | Current Version | Previous Version | Text Only | Print | Product List | Glossary On
Versions: 1 2 3 4 5 6 7 8 9 10 11 12 13 14 15
000
FTAK31 PAJN 050500
TAFASI
TAF
PASI 050520Z 0506/0606 14007KT P6SM -RA SCT015 OVC025
      TEMPO 0506/0509 3SM -RA BR BKN015
     FM051000 10005KT 4SM -RA BR BKN015 OVC025
     FM051800 VRB04KT P6SM VCSH SCT015 BKN025 OVC040
     FM060000 25005KT P6SM VCSH SCT025 OVC040=

USA.gov is the U.S. government's official web portal to all federal, state and local government web resources and services.